This is the latest recevied weather packets stored in our database for station/object IV3CVE-H1. If no packets are shown the sender has not sent any weather packets the latest 10 day(s).
| Time | Temp. | Humidity | Pressure | Rain* | Wind** | Luminosity | Snow |
|---|---|---|---|---|---|---|---|
| 1777790116 | 16.67° C | 68% | 1017.2 hPa | 0 mm | - | - | - |
| 1777787715 | 15.56° C | 73% | 1017.1 hPa | 0 mm | - | - | - |
| 1777785918 | 12.78° C | 81% | 1017 hPa | 0 mm | - | - | - |
| 1777775118 | 10° C | 86% | 1017.3 hPa | 0 mm | - | - | - |
| 1777772116 | 10.56° C | 84% | 1017.4 hPa | 0 mm | - | - | - |
| 1777771516 | 10.56° C | 83% | 1017.4 hPa | 0 mm | - | - | - |
| 1777770916 | 10.56° C | 83% | 1017.5 hPa | 0 mm | - | - | - |
| 1777763715 | 12.22° C | 82% | 1018.4 hPa | 0 mm | - | - | - |
| 1777763117 | 12.78° C | 82% | 1018.4 hPa | 0 mm | - | - | - |
| 1777757117 | 14.44° C | 72% | 1018.5 hPa | 0 mm | - | - | - |
| 1777756516 | 14.44° C | 72% | 1018.4 hPa | 0 mm | - | - | - |
| 1777755916 | 13.89° C | 72% | 1018.5 hPa | 0 mm | - | - | - |
| 1777748716 | 17.78° C | 57% | 1018.1 hPa | 0 mm | - | - | - |
| 1777747518 | 18.89° C | 54% | 1018 hPa | 0 mm | - | - | - |
| 1777746356 | 19.44° C | 50% | 1017.8 hPa | 0 mm | - | - | - |
| 1777745716 | 20° C | 48% | 1017.7 hPa | 0 mm | - | - | - |
| 1777745136 | 20.56° C | 48% | 1017.7 hPa | 0 mm | - | - | - |
| 1777740316 | 23.33° C | 41% | 1017.7 hPa | 0 mm | - | - | - |
| 1777736117 | 25.56° C | 38% | 1018.1 hPa | 0 mm | - | - | - |
| 1777735517 | 25.56° C | 36% | 1018.3 hPa | 0 mm | - | - | - |
| 1777734316 | 25.56° C | 37% | 1018.5 hPa | 0 mm | - | - | - |
| 1777732517 | 26.11° C | 37% | 1018.7 hPa | 0 mm | - | - | - |
| 1777731957 | 26.11° C | 36% | 1018.8 hPa | 0 mm | - | - | - |
| 1777728915 | 25.56° C | 36% | 1019.5 hPa | 0 mm | - | - | - |
| 1777727718 | 26.11° C | 36% | 1019.9 hPa | 0 mm | - | - | - |
* Rain latest hour (hover to see other rain measurements)
** Current wind speed in m/s (hover to see current wind gust speed)